createdAt,value
2019-03-06T00:03:36.520Z,8.43
2019-03-06T00:07:45.960Z,7.00
2019-03-06T00:11:55.879Z,6.10
2019-03-06T00:16:05.198Z,8.70
2019-03-06T00:20:14.865Z,10.50
2019-03-06T00:24:24.630Z,10.13
2019-03-06T00:28:34.504Z,9.40
2019-03-06T00:32:43.914Z,6.73
2019-03-06T00:36:53.751Z,6.07
2019-03-06T00:41:22.400Z,6.93
2019-03-06T00:45:32.525Z,4.53
2019-03-06T00:49:42.563Z,5.37
2019-03-06T00:53:52.495Z,3.20
2019-03-06T00:58:02.029Z,5.87
2019-03-06T01:02:12.496Z,6.40
2019-03-06T01:06:22.248Z,4.53
2019-03-06T01:10:32.423Z,6.27
2019-03-06T01:14:42.909Z,5.90
2019-03-06T01:18:53.453Z,4.10
2019-03-06T01:23:03.234Z,6.97
2019-03-06T01:27:13.458Z,8.73
2019-03-06T01:31:23.255Z,3.07
2019-03-06T01:35:54.393Z,4.13
2019-03-06T01:40:25.230Z,2.70
2019-03-06T01:44:45.027Z,3.73
2019-03-06T01:48:54.985Z,5.93
2019-03-06T01:53:05.302Z,4.50
2019-03-06T01:57:16.098Z,5.00
2019-03-06T02:01:27.015Z,5.20
2019-03-06T02:05:37.705Z,5.53
2019-03-06T02:09:48.243Z,4.73
2019-03-06T02:13:58.618Z,4.07
2019-03-06T02:18:09.921Z,4.33
2019-03-06T02:22:19.934Z,3.53
2019-03-06T02:26:30.090Z,5.47
2019-03-06T02:30:40.513Z,5.60
2019-03-06T02:34:50.233Z,5.00
2019-03-06T02:38:59.944Z,5.87
2019-03-06T02:43:09.762Z,6.43
2019-03-06T02:47:19.201Z,6.87
2019-03-06T02:51:28.987Z,6.10
2019-03-06T02:55:38.460Z,9.73
2019-03-06T03:00:02.050Z,6.10
2019-03-06T03:04:40.157Z,8.70
2019-03-06T03:08:49.713Z,5.53
2019-03-06T03:13:00.318Z,5.70
2019-03-06T03:17:10.139Z,5.87
2019-03-06T03:21:19.582Z,6.80
2019-03-06T03:25:29.257Z,6.90
2019-03-06T03:29:39.004Z,6.13
2019-03-06T03:33:48.503Z,7.03
2019-03-06T03:37:58.072Z,8.60
2019-03-06T03:42:07.798Z,3.80
2019-03-06T03:46:17.864Z,6.20
2019-03-06T03:50:27.393Z,6.60
2019-03-06T03:54:36.861Z,4.60
2019-03-06T03:58:46.683Z,6.50
2019-03-06T04:02:59.620Z,7.80
2019-03-06T04:07:09.335Z,4.20
2019-03-06T04:11:18.819Z,6.57
2019-03-06T04:15:28.407Z,5.37
2019-03-06T04:19:38.150Z,4.40
2019-03-06T04:23:47.967Z,6.50
2019-03-06T04:27:57.375Z,4.63
2019-03-06T04:32:07.185Z,5.70
2019-03-06T04:36:16.891Z,3.93
2019-03-06T04:40:26.839Z,4.70
2019-03-06T04:44:36.131Z,5.70
2019-03-06T04:48:46.382Z,4.20
2019-03-06T04:52:55.927Z,3.53
2019-03-06T04:57:06.062Z,3.40
2019-03-06T05:01:15.569Z,2.97
2019-03-06T05:05:25.259Z,3.50
2019-03-06T05:09:34.773Z,2.97
2019-03-06T05:13:44.668Z,3.80
2019-03-06T05:18:21.180Z,3.80
2019-03-06T05:22:30.632Z,4.30
2019-03-06T05:26:40.063Z,4.77
2019-03-06T05:30:49.549Z,2.57
2019-03-06T05:34:59.134Z,4.57
2019-03-06T05:39:10.626Z,4.50
2019-03-06T05:43:20.283Z,3.70
2019-03-06T05:47:30.296Z,5.50
2019-03-06T05:51:39.638Z,5.80
2019-03-06T05:55:52.903Z,2.80
2019-03-06T06:00:02.335Z,6.17
2019-03-06T06:04:12.319Z,4.27
2019-03-06T06:08:21.814Z,4.63
2019-03-06T06:12:32.444Z,5.93
2019-03-06T06:16:41.727Z,16.37
2019-03-06T06:20:52.963Z,4.00
2019-03-06T06:25:02.340Z,3.77
2019-03-06T06:29:12.098Z,5.13
2019-03-06T06:33:21.543Z,7.10
2019-03-06T06:37:31.792Z,5.00
2019-03-06T06:41:41.239Z,5.63
2019-03-06T06:45:50.992Z,6.80
2019-03-06T06:50:00.561Z,8.63
2019-03-06T06:54:16.082Z,4.40
2019-03-06T06:59:20.139Z,3.17
2019-03-06T07:04:31.802Z,5.40
2019-03-06T07:08:52.584Z,3.00
2019-03-06T07:13:17.338Z,5.60
2019-03-06T07:17:35.785Z,4.13
2019-03-06T07:21:55.767Z,5.43
2019-03-06T07:26:14.455Z,5.37
2019-03-06T07:30:40.340Z,3.17
2019-03-06T07:35:54.287Z,5.40
2019-03-06T07:40:09.658Z,4.80
2019-03-06T07:44:35.556Z,8.23
2019-03-06T07:49:09.609Z,3.83
2019-03-06T07:54:14.571Z,3.97
2019-03-06T07:58:54.190Z,2.77
2019-03-06T08:03:21.971Z,4.40
2019-03-06T08:07:32.575Z,5.30
2019-03-06T08:12:01.699Z,3.07
2019-03-06T08:16:27.719Z,5.43
2019-03-06T08:21:02.629Z,3.90
2019-03-06T08:25:27.520Z,4.07
2019-03-06T08:29:38.677Z,4.40
2019-03-06T08:33:49.092Z,2.97
2019-03-06T08:37:59.636Z,3.07
2019-03-06T08:42:10.057Z,4.00
2019-03-06T08:46:38.843Z,4.13
2019-03-06T08:51:03.919Z,4.30
2019-03-06T08:55:30.634Z,4.30
2019-03-06T08:59:59.951Z,3.33
2019-03-06T09:04:28.480Z,3.53
2019-03-06T09:08:55.382Z,3.37
2019-03-06T09:13:12.660Z,4.73
2019-03-06T09:17:33.312Z,3.43
2019-03-06T09:21:51.180Z,4.80
2019-03-06T09:26:18.042Z,4.60
2019-03-06T09:30:37.111Z,2.60
2019-03-06T09:35:00.462Z,6.50
2019-03-06T09:39:28.785Z,5.40
2019-03-06T09:43:50.135Z,6.13
2019-03-06T09:48:22.007Z,4.87
2019-03-06T09:53:02.669Z,8.23
2019-03-06T09:57:28.131Z,4.33
2019-03-06T10:02:06.676Z,5.23
2019-03-06T10:06:42.195Z,5.90
2019-03-06T10:11:01.188Z,4.10
2019-03-06T10:15:34.060Z,4.80
2019-03-06T10:20:02.385Z,4.30
2019-03-06T10:24:13.719Z,4.80
2019-03-06T10:32:37.143Z,7.70
2019-03-06T10:36:47.960Z,3.57
2019-03-06T10:41:00.048Z,5.17
2019-03-06T10:45:10.898Z,3.20
2019-03-06T10:49:23.035Z,4.53
2019-03-06T10:53:41.130Z,8.70
2019-03-06T10:57:45.856Z,9.37
2019-03-06T11:01:56.783Z,6.00
2019-03-06T11:06:07.691Z,7.70
2019-03-06T11:10:23.757Z,13.73
2019-03-06T11:14:30.804Z,6.20
2019-03-06T11:18:40.976Z,6.47
2019-03-06T11:22:51.461Z,11.33
2019-03-06T11:27:02.128Z,9.23
2019-03-06T11:31:13.988Z,8.07
2019-03-06T11:35:26.649Z,8.20
2019-03-06T11:39:37.565Z,8.43
2019-03-06T11:43:48.948Z,9.53
2019-03-06T11:48:01.190Z,6.37
2019-03-06T11:52:12.148Z,9.13
2019-03-06T11:56:22.607Z,11.37
2019-03-06T12:00:39.589Z,9.67
2019-03-06T12:04:50.873Z,8.53
2019-03-06T12:09:01.821Z,7.60
2019-03-06T12:13:16.074Z,15.30
2019-03-06T12:17:26.422Z,18.83
2019-03-06T12:21:37.260Z,23.00
2019-03-06T12:25:47.663Z,20.47
2019-03-06T12:29:58.864Z,22.33
2019-03-06T12:34:09.498Z,28.67
2019-03-06T12:38:21.606Z,24.10
2019-03-06T12:42:31.775Z,17.80
2019-03-06T12:46:42.087Z,23.37
2019-03-06T12:50:56.066Z,25.27
2019-03-06T12:55:04.611Z,18.20
2019-03-06T12:59:14.874Z,17.23
2019-03-06T13:03:26.084Z,19.70
2019-03-06T13:07:36.302Z,11.70
2019-03-06T13:11:47.669Z,19.03
2019-03-06T13:15:58.076Z,10.00
2019-03-06T13:20:10.586Z,15.50
2019-03-06T13:24:21.599Z,10.30
2019-03-06T13:28:31.957Z,10.60
2019-03-06T13:32:55.414Z,12.83
2019-03-06T13:37:06.686Z,9.30
2019-03-06T13:41:17.327Z,11.00
2019-03-06T13:45:27.953Z,12.03
2019-03-06T13:49:38.651Z,15.87
2019-03-06T13:53:49.749Z,15.87
2019-03-06T13:58:00.607Z,15.30
2019-03-06T14:02:12.922Z,10.80
2019-03-06T14:06:23.575Z,12.73
2019-03-06T14:10:34.995Z,8.70
2019-03-06T14:14:45.688Z,14.27
2019-03-06T14:18:56.557Z,13.60
2019-03-06T14:23:07.203Z,10.40
2019-03-06T14:27:18.248Z,17.60
2019-03-06T14:31:28.807Z,13.77
2019-03-06T14:35:39.750Z,15.07
2019-03-06T14:39:50.445Z,16.53
2019-03-06T14:44:01.804Z,17.30
2019-03-06T14:48:13.391Z,13.50
2019-03-06T14:52:25.191Z,12.13
2019-03-06T14:56:35.702Z,14.97
2019-03-06T15:00:46.295Z,14.83
2019-03-06T15:04:57.617Z,12.43
2019-03-06T15:09:14.633Z,14.33
2019-03-06T15:13:25.905Z,12.43
2019-03-06T15:17:37.440Z,15.87
2019-03-06T15:21:48.287Z,11.80
2019-03-06T15:25:59.700Z,12.53
2019-03-06T15:30:11.208Z,10.47
2019-03-06T15:34:21.808Z,12.73
2019-03-06T15:38:32.412Z,13.83
2019-03-06T15:42:42.866Z,14.60
2019-03-06T15:46:53.183Z,12.40
2019-03-06T15:51:04.097Z,13.50
2019-03-06T15:55:15.758Z,14.50
2019-03-06T15:59:27.637Z,14.43
2019-03-06T16:03:38.343Z,12.10
2019-03-06T16:07:50.295Z,10.43
2019-03-06T16:12:02.037Z,13.80
2019-03-06T16:16:13.235Z,12.20
2019-03-06T16:20:25.185Z,12.30
2019-03-06T16:24:37.587Z,14.77
2019-03-06T16:28:47.855Z,12.63
2019-03-06T16:32:58.612Z,11.20
2019-03-06T16:37:09.823Z,15.83
2019-03-06T16:41:20.423Z,10.40
2019-03-06T16:45:31.397Z,11.97
2019-03-06T16:49:42.319Z,15.83
2019-03-06T16:53:52.756Z,9.70
2019-03-06T16:58:03.758Z,8.60
2019-03-06T17:02:14.728Z,11.17
2019-03-06T17:06:26.601Z,12.03
2019-03-06T17:10:37.228Z,14.10
2019-03-06T17:14:47.983Z,15.50
2019-03-06T17:18:58.469Z,11.90
2019-03-06T17:23:09.737Z,9.13
2019-03-06T17:27:20.026Z,11.60
2019-03-06T17:31:30.589Z,12.57
2019-03-06T17:35:41.528Z,11.23
2019-03-06T17:39:52.262Z,13.80
2019-03-06T17:44:07.436Z,8.83
2019-03-06T17:48:18.064Z,9.50
2019-03-06T17:52:28.889Z,12.87
2019-03-06T17:56:39.368Z,9.53
2019-03-06T18:00:53.200Z,10.83
2019-03-06T18:05:04.021Z,11.13
2019-03-06T18:09:14.783Z,8.27
2019-03-06T18:13:25.829Z,11.37
2019-03-06T18:17:35.879Z,14.43
2019-03-06T18:21:46.995Z,5.47
2019-03-06T18:25:57.116Z,12.60
2019-03-06T18:30:07.937Z,10.00
2019-03-06T18:34:18.522Z,8.57
2019-03-06T18:38:29.458Z,7.33
2019-03-06T18:42:39.975Z,12.77
2019-03-06T18:46:50.788Z,11.20
2019-03-06T18:51:01.309Z,11.00
2019-03-06T18:55:12.953Z,7.87
2019-03-06T18:59:23.713Z,7.17
2019-03-06T19:03:34.626Z,5.10
2019-03-06T19:07:46.711Z,11.30
2019-03-06T19:11:58.579Z,12.17
2019-03-06T19:16:09.083Z,11.37
2019-03-06T19:20:21.642Z,12.33
2019-03-06T19:24:32.585Z,11.03
2019-03-06T19:28:44.083Z,9.30
2019-03-06T19:32:55.165Z,6.20
2019-03-06T19:37:06.142Z,5.63
2019-03-06T19:41:16.964Z,8.80
2019-03-06T19:45:27.557Z,6.80
2019-03-06T19:49:38.130Z,5.30
2019-03-06T19:53:48.612Z,12.73
2019-03-06T19:58:01.033Z,5.90
2019-03-06T20:02:12.040Z,5.80
2019-03-06T20:06:27.158Z,7.90
2019-03-06T20:10:35.553Z,7.10
2019-03-06T20:14:46.468Z,12.37
2019-03-06T20:18:57.670Z,10.10
2019-03-06T20:23:09.328Z,9.40
2019-03-06T20:27:20.663Z,6.50
2019-03-06T20:31:31.847Z,4.70
2019-03-06T20:35:43.003Z,4.57
2019-03-06T20:39:53.947Z,6.70
2019-03-06T20:44:04.978Z,4.80
2019-03-06T20:48:15.800Z,4.70
2019-03-06T20:52:26.931Z,11.40
2019-03-06T20:56:38.252Z,4.27
2019-03-06T21:00:49.536Z,9.00
2019-03-06T21:05:01.193Z,5.43
2019-03-06T21:09:12.892Z,4.77
2019-03-06T21:13:23.776Z,3.70
2019-03-06T21:17:34.949Z,6.60
2019-03-06T21:21:45.363Z,5.80
2019-03-06T21:25:56.032Z,3.03
2019-03-06T21:30:07.362Z,12.83
2019-03-06T21:34:18.259Z,8.37
2019-03-06T21:38:29.029Z,5.03
2019-03-06T21:42:40.109Z,6.87
2019-03-06T21:46:51.097Z,6.43
2019-03-06T21:51:02.507Z,7.10
2019-03-06T21:55:14.415Z,6.00
2019-03-06T21:59:25.485Z,6.73
2019-03-06T22:03:36.875Z,7.60
2019-03-06T22:07:50.150Z,6.20
2019-03-06T22:12:00.555Z,4.60
2019-03-06T22:16:10.945Z,6.33
2019-03-06T22:20:21.749Z,6.47
2019-03-06T22:24:32.487Z,6.10
2019-03-06T22:28:43.160Z,3.80
2019-03-06T22:32:53.582Z,8.30
2019-03-06T22:37:05.031Z,9.10
2019-03-06T22:41:16.121Z,4.87
2019-03-06T22:45:27.342Z,6.53
2019-03-06T22:49:38.449Z,4.90
2019-03-06T22:53:50.011Z,7.37
2019-03-06T22:58:02.588Z,5.47
2019-03-06T23:02:13.733Z,5.77
2019-03-06T23:06:24.808Z,4.10
2019-03-06T23:10:59.218Z,4.07
2019-03-06T23:15:11.425Z,6.77
2019-03-06T23:19:22.984Z,5.90
2019-03-06T23:23:33.476Z,5.63
2019-03-06T23:27:44.147Z,5.10
2019-03-06T23:31:55.934Z,4.17
2019-03-06T23:36:07.770Z,10.20
2019-03-06T23:40:18.853Z,5.30
2019-03-06T23:44:29.841Z,11.73
2019-03-06T23:48:40.890Z,7.03
2019-03-06T23:53:11.413Z,7.43
2019-03-06T23:57:22.454Z,4.30
